createdAt,value
2018-10-07T00:00:51.942Z,99.99
2018-10-07T00:01:51.853Z,99.99
2018-10-07T00:02:51.792Z,99.99
2018-10-07T00:03:51.766Z,99.99
2018-10-07T00:04:51.705Z,99.99
2018-10-07T00:05:51.678Z,99.99
2018-10-07T00:06:51.603Z,99.99
2018-10-07T00:07:51.559Z,99.99
2018-10-07T00:08:51.495Z,99.99
2018-10-07T00:09:51.443Z,99.99
2018-10-07T00:10:51.404Z,99.99
2018-10-07T00:11:51.380Z,99.99
2018-10-07T00:12:51.311Z,99.99
2018-10-07T00:13:51.250Z,99.99
2018-10-07T00:14:51.202Z,99.99
2018-10-07T00:15:51.152Z,99.99
2018-10-07T00:16:51.129Z,99.99
2018-10-07T00:17:51.055Z,99.99
2018-10-07T00:18:51.005Z,99.99
2018-10-07T00:19:50.962Z,99.99
2018-10-07T00:20:50.927Z,99.99
2018-10-07T00:21:50.888Z,99.99
2018-10-07T00:22:50.823Z,99.99
2018-10-07T00:23:50.759Z,99.99
2018-10-07T00:24:50.707Z,99.99
2018-10-07T00:25:50.670Z,99.99
2018-10-07T00:26:50.633Z,99.99
2018-10-07T00:27:50.563Z,99.99
2018-10-07T00:28:50.527Z,99.99
2018-10-07T00:29:50.483Z,99.99
2018-10-07T00:30:50.416Z,99.99
2018-10-07T00:31:50.393Z,99.81
2018-10-07T00:32:50.328Z,99.99
2018-10-07T00:33:50.264Z,99.99
2018-10-07T00:34:50.228Z,99.99
2018-10-07T00:35:50.174Z,99.99
2018-10-07T00:36:50.150Z,99.99
2018-10-07T00:37:50.074Z,99.99
2018-10-07T00:38:50.023Z,99.99
2018-10-07T00:39:49.980Z,99.99
2018-10-07T00:40:49.932Z,99.99
2018-10-07T00:41:49.905Z,99.99
2018-10-07T00:42:50.530Z,99.99
2018-10-07T00:43:49.777Z,99.99
2018-10-07T00:44:49.731Z,99.99
2018-10-07T00:45:49.704Z,99.99
2018-10-07T00:46:49.675Z,99.99
2018-10-07T00:47:49.622Z,99.99
2018-10-07T00:48:49.538Z,99.99
2018-10-07T00:49:49.484Z,99.99
2018-10-07T00:50:49.434Z,99.99
2018-10-07T00:51:49.411Z,99.99
2018-10-07T00:52:49.366Z,99.99
2018-10-07T00:53:49.338Z,99.99
2018-10-07T00:54:49.239Z,99.99
2018-10-07T00:55:49.191Z,99.99
2018-10-07T00:56:49.186Z,99.99
2018-10-07T00:57:49.108Z,99.99
2018-10-07T00:58:49.052Z,99.99
2018-10-07T00:59:48.995Z,99.99
2018-10-07T01:00:48.947Z,99.99
2018-10-07T01:01:48.927Z,99.99
2018-10-07T01:02:48.848Z,99.99
2018-10-07T01:03:48.793Z,99.99
2018-10-07T01:04:48.752Z,99.99
2018-10-07T01:05:48.703Z,99.99
2018-10-07T01:06:48.673Z,99.99
2018-10-07T01:07:48.600Z,99.99
2018-10-07T01:08:48.561Z,99.99
2018-10-07T01:09:48.498Z,99.99
2018-10-07T01:10:48.461Z,99.99
2018-10-07T01:11:48.442Z,99.99
2018-10-07T01:12:48.356Z,99.99
2018-10-07T01:13:48.309Z,99.99
2018-10-07T01:14:48.253Z,99.99
2018-10-07T01:15:48.220Z,99.99
2018-10-07T01:16:48.179Z,99.99
2018-10-07T01:17:48.108Z,99.99
2018-10-07T01:18:48.068Z,99.99
2018-10-07T01:19:48.030Z,99.99
2018-10-07T01:20:47.962Z,99.99
2018-10-07T01:21:47.972Z,99.99
2018-10-07T01:22:47.879Z,99.99
2018-10-07T01:23:47.807Z,99.99
2018-10-07T01:24:47.756Z,99.99
2018-10-07T01:25:47.708Z,99.99
2018-10-07T01:26:47.661Z,99.99
2018-10-07T01:27:47.642Z,99.99
2018-10-07T01:28:47.585Z,99.99
2018-10-07T01:29:47.512Z,99.99
2018-10-07T01:30:47.462Z,99.99
2018-10-07T01:31:47.427Z,99.99
2018-10-07T01:32:47.388Z,99.99
2018-10-07T01:33:47.314Z,99.99
2018-10-07T01:34:47.279Z,99.99
2018-10-07T01:35:47.224Z,99.99
2018-10-07T01:36:47.191Z,99.99
2018-10-07T01:37:47.140Z,99.99
2018-10-07T01:38:47.069Z,99.99
2018-10-07T01:39:47.040Z,99.99
2018-10-07T01:40:46.970Z,99.99
2018-10-07T01:41:46.947Z,99.99
2018-10-07T01:42:46.894Z,99.99
2018-10-07T01:43:46.828Z,99.99
2018-10-07T01:44:46.769Z,99.99
2018-10-07T01:45:46.722Z,99.99
2018-10-07T01:46:46.672Z,99.99
2018-10-07T01:47:46.656Z,99.99
2018-10-07T01:48:46.584Z,99.99
2018-10-07T01:49:46.522Z,99.99
2018-10-07T01:50:46.477Z,99.99
2018-10-07T01:51:46.432Z,99.99
2018-10-07T01:52:46.411Z,99.99
2018-10-07T01:53:46.325Z,99.99
2018-10-07T01:54:46.319Z,99.99
2018-10-07T01:55:46.230Z,99.99
2018-10-07T01:56:46.181Z,99.99
2018-10-07T01:57:46.165Z,99.99
2018-10-07T01:58:46.088Z,99.99
2018-10-07T01:59:46.036Z,99.99
2018-10-07T02:00:45.978Z,99.99
2018-10-07T02:01:45.947Z,99.99
2018-10-07T02:02:45.910Z,99.99
2018-10-07T02:03:45.839Z,99.99
2018-10-07T02:04:45.787Z,99.99
2018-10-07T02:05:45.733Z,99.99
2018-10-07T02:06:45.685Z,99.99
2018-10-07T02:07:45.660Z,99.99
2018-10-07T02:08:45.598Z,99.99
2018-10-07T02:09:45.551Z,99.99
2018-10-07T02:10:45.493Z,99.99
2018-10-07T02:11:45.448Z,99.99
2018-10-07T02:12:45.422Z,99.99
2018-10-07T02:13:45.396Z,99.99
2018-10-07T02:14:45.292Z,99.99
2018-10-07T02:15:45.243Z,99.99
2018-10-07T02:16:45.195Z,99.99
2018-10-07T02:17:45.164Z,99.99
2018-10-07T02:18:45.096Z,99.99
2018-10-07T02:19:45.046Z,99.99
2018-10-07T02:20:44.995Z,99.99
2018-10-07T02:21:44.951Z,99.99
2018-10-07T02:22:44.917Z,99.99
2018-10-07T02:23:44.849Z,99.99
2018-10-07T02:24:44.796Z,99.99
2018-10-07T02:25:44.756Z,99.99
2018-10-07T02:26:44.705Z,99.99
2018-10-07T02:27:44.691Z,99.99
2018-10-07T02:28:44.599Z,99.99
2018-10-07T02:29:44.568Z,99.99
2018-10-07T02:30:44.499Z,99.99
2018-10-07T02:31:44.451Z,99.99
2018-10-07T02:32:44.425Z,99.99
2018-10-07T02:33:44.352Z,99.99
2018-10-07T02:34:44.309Z,99.99
2018-10-07T02:35:44.258Z,99.99
2018-10-07T02:36:44.203Z,99.99
2018-10-07T02:37:44.179Z,99.99
2018-10-07T02:38:44.118Z,99.99
2018-10-07T02:39:44.053Z,99.99
2018-10-07T02:40:44.013Z,99.99
2018-10-07T02:41:43.987Z,99.99
2018-10-07T02:42:43.944Z,99.99
2018-10-07T02:43:43.857Z,99.99
2018-10-07T02:44:43.810Z,99.99
2018-10-07T02:45:43.759Z,99.99
2018-10-07T02:46:43.719Z,99.99
2018-10-07T02:47:43.663Z,99.99
2018-10-07T02:48:43.649Z,99.99
2018-10-07T02:49:43.565Z,99.99
2018-10-07T02:50:43.512Z,99.99
2018-10-07T02:51:43.473Z,99.99
2018-10-07T02:52:43.418Z,99.99
2018-10-07T02:53:43.390Z,99.99
2018-10-07T02:54:43.318Z,99.99
2018-10-07T02:55:43.271Z,99.99
2018-10-07T02:56:43.221Z,99.99
2018-10-07T02:57:43.166Z,99.99
2018-10-07T02:58:43.158Z,99.99
2018-10-07T02:59:43.061Z,99.99
2018-10-07T03:00:43.067Z,99.99
2018-10-07T03:01:42.970Z,99.99
2018-10-07T03:02:42.912Z,99.99
2018-10-07T03:03:42.894Z,99.99
2018-10-07T03:04:42.891Z,99.99
2018-10-07T03:05:42.768Z,99.99
2018-10-07T03:06:42.714Z,99.99
2018-10-07T03:07:42.676Z,99.99
2018-10-07T03:08:42.641Z,99.99
2018-10-07T03:09:42.566Z,99.99
2018-10-07T03:10:42.512Z,99.99
2018-10-07T03:11:42.466Z,99.99
2018-10-07T03:12:42.415Z,99.99
2018-10-07T03:13:42.388Z,99.99
2018-10-07T03:14:42.315Z,99.99
2018-10-07T03:15:42.259Z,99.99
2018-10-07T03:16:42.216Z,99.99
2018-10-07T03:17:42.163Z,99.99
2018-10-07T03:18:42.133Z,99.99
2018-10-07T03:19:42.061Z,99.99
2018-10-07T03:20:42.009Z,99.99
2018-10-07T03:21:41.962Z,99.99
2018-10-07T03:22:41.925Z,99.99
2018-10-07T03:23:41.885Z,99.99
2018-10-07T03:24:41.807Z,99.99
2018-10-07T03:25:41.763Z,99.99
2018-10-07T03:26:41.712Z,99.99
2018-10-07T03:27:41.671Z,99.99
2018-10-07T03:28:41.639Z,99.99
2018-10-07T03:29:41.552Z,99.99
2018-10-07T03:30:41.511Z,99.99
2018-10-07T03:31:41.448Z,99.99
2018-10-07T03:32:41.411Z,99.99
2018-10-07T03:33:41.373Z,99.99
2018-10-07T03:34:41.305Z,99.99
2018-10-07T03:35:41.243Z,99.99
2018-10-07T03:36:41.204Z,99.99
2018-10-07T03:37:41.160Z,99.99
2018-10-07T03:38:41.115Z,99.99
2018-10-07T03:39:41.063Z,99.99
2018-10-07T03:40:40.996Z,99.99
2018-10-07T03:41:40.945Z,99.99
2018-10-07T03:42:40.887Z,99.99
2018-10-07T03:43:40.874Z,99.99
2018-10-07T03:44:40.810Z,99.99
2018-10-07T03:45:40.737Z,99.99
2018-10-07T03:46:40.681Z,99.99
2018-10-07T03:47:40.634Z,99.99
2018-10-07T03:48:40.609Z,99.99
2018-10-07T03:49:40.542Z,99.99
2018-10-07T03:50:40.472Z,99.99
2018-10-07T03:51:40.424Z,99.99
2018-10-07T03:52:40.389Z,99.99
2018-10-07T03:53:40.348Z,99.99
2018-10-07T03:54:40.271Z,99.99
2018-10-07T03:55:40.217Z,99.99
2018-10-07T03:56:40.165Z,99.99
2018-10-07T03:57:40.120Z,99.99
2018-10-07T03:58:40.089Z,99.99
2018-10-07T03:59:40.025Z,99.99
2018-10-07T04:00:39.961Z,99.99
2018-10-07T04:01:39.912Z,99.99
2018-10-07T04:02:39.859Z,99.99
2018-10-07T04:03:39.807Z,99.99
2018-10-07T04:04:39.781Z,99.99
2018-10-07T04:05:39.704Z,99.99
2018-10-07T04:06:39.651Z,99.99
2018-10-07T04:07:39.601Z,99.99
2018-10-07T04:08:39.554Z,99.99
2018-10-07T04:09:39.520Z,99.99
2018-10-07T04:10:39.441Z,99.99
2018-10-07T04:11:39.395Z,99.99
2018-10-07T04:12:39.344Z,99.99
2018-10-07T04:13:39.291Z,99.99
2018-10-07T04:14:39.260Z,99.99
2018-10-07T04:15:39.185Z,99.99
2018-10-07T04:16:39.133Z,99.99
2018-10-07T04:17:39.082Z,99.99
2018-10-07T04:18:39.038Z,99.99
2018-10-07T04:19:39.000Z,99.99
2018-10-07T04:20:38.924Z,99.99
2018-10-07T04:21:38.876Z,99.99
2018-10-07T04:22:38.826Z,99.99
2018-10-07T04:23:38.772Z,99.99
2018-10-07T04:24:38.744Z,99.99
2018-10-07T04:25:38.674Z,99.99
2018-10-07T04:26:38.616Z,99.99
2018-10-07T04:27:38.565Z,99.99
2018-10-07T04:28:38.512Z,99.99
2018-10-07T04:29:38.491Z,99.99
2018-10-07T04:30:38.406Z,99.99
2018-10-07T04:31:38.358Z,99.99
2018-10-07T04:32:38.308Z,99.99
2018-10-07T04:33:38.257Z,99.99
2018-10-07T04:34:38.225Z,99.99
2018-10-07T04:35:38.153Z,99.99
2018-10-07T04:36:38.100Z,99.99
2018-10-07T04:37:38.041Z,99.99
2018-10-07T04:38:37.995Z,99.99
2018-10-07T04:39:37.976Z,99.99
2018-10-07T04:40:37.890Z,99.99
2018-10-07T04:41:37.838Z,99.99
2018-10-07T04:42:37.784Z,99.99
2018-10-07T04:43:37.731Z,99.99
2018-10-07T04:44:37.706Z,99.99
2018-10-07T04:45:37.627Z,99.99
2018-10-07T04:46:37.581Z,99.99
2018-10-07T04:47:37.523Z,99.99
2018-10-07T04:48:37.486Z,99.99
2018-10-07T04:49:37.450Z,99.99
2018-10-07T04:50:37.368Z,99.99
2018-10-07T04:51:37.319Z,99.99
2018-10-07T04:52:37.269Z,99.99
2018-10-07T04:53:37.217Z,99.99
2018-10-07T04:54:37.192Z,99.99
2018-10-07T04:55:37.113Z,99.99
2018-10-07T04:56:37.058Z,99.99
2018-10-07T04:57:37.010Z,99.99
2018-10-07T04:58:36.953Z,99.99
2018-10-07T04:59:36.929Z,99.99
2018-10-07T05:00:36.851Z,99.99
2018-10-07T05:01:36.801Z,99.99
2018-10-07T05:02:36.752Z,99.99
2018-10-07T05:03:36.691Z,99.99
2018-10-07T05:04:36.661Z,99.99
2018-10-07T05:05:36.588Z,99.99
2018-10-07T05:06:36.538Z,99.99
2018-10-07T05:07:36.484Z,99.99
2018-10-07T05:08:36.430Z,99.99
2018-10-07T05:09:36.403Z,99.99
2018-10-07T05:10:36.331Z,99.99
2018-10-07T05:11:36.311Z,99.99
2018-10-07T05:12:36.228Z,99.99
2018-10-07T05:13:36.176Z,99.99
2018-10-07T05:14:36.144Z,99.99
2018-10-07T05:15:36.071Z,99.99
2018-10-07T05:16:36.019Z,99.99
2018-10-07T05:17:35.969Z,99.99
2018-10-07T05:18:35.917Z,99.99
2018-10-07T05:19:35.885Z,99.99
2018-10-07T05:20:35.812Z,99.99
2018-10-07T05:21:35.763Z,99.99
2018-10-07T05:22:35.710Z,99.99
2018-10-07T05:23:35.658Z,99.99
2018-10-07T05:24:35.604Z,99.99
2018-10-07T05:25:35.573Z,99.99
2018-10-07T05:26:35.500Z,99.99
2018-10-07T05:27:35.447Z,99.99
2018-10-07T05:28:35.399Z,99.99
2018-10-07T05:29:35.356Z,99.99
2018-10-07T05:30:42.470Z,99.99
2018-10-07T05:31:35.238Z,99.99
2018-10-07T05:32:35.188Z,99.99
2018-10-07T05:33:35.192Z,99.99
2018-10-07T05:34:35.090Z,99.99
2018-10-07T05:35:35.055Z,99.99
2018-10-07T05:36:34.984Z,99.99
2018-10-07T05:37:34.927Z,99.99
2018-10-07T05:38:34.878Z,99.99
2018-10-07T05:39:34.835Z,99.99
2018-10-07T05:40:34.800Z,99.99
2018-10-07T05:41:34.720Z,99.99
2018-10-07T05:42:34.667Z,99.99
2018-10-07T05:43:34.619Z,99.99
2018-10-07T05:44:34.716Z,99.99
2018-10-07T05:45:34.535Z,99.99
2018-10-07T05:46:34.457Z,99.99
2018-10-07T05:47:34.409Z,99.99
2018-10-07T05:48:34.355Z,99.99
2018-10-07T05:49:34.306Z,99.99
2018-10-07T05:50:34.273Z,99.99
2018-10-07T05:51:34.197Z,99.99
2018-10-07T05:52:34.157Z,99.99
2018-10-07T05:53:34.097Z,99.99
2018-10-07T05:54:34.046Z,99.99
2018-10-07T05:55:34.043Z,99.99
2018-10-07T05:56:33.941Z,99.99
2018-10-07T05:57:33.890Z,99.99
2018-10-07T05:58:33.835Z,99.99
2018-10-07T05:59:33.782Z,99.99
2018-10-07T06:00:33.763Z,99.99
2018-10-07T06:01:33.690Z,99.99
2018-10-07T06:02:33.628Z,99.99
2018-10-07T06:03:33.578Z,99.99
2018-10-07T06:04:33.521Z,99.99
2018-10-07T06:05:33.496Z,99.99
2018-10-07T06:06:33.425Z,99.99
2018-10-07T06:07:33.372Z,99.99
2018-10-07T06:08:33.316Z,99.99
2018-10-07T06:09:33.273Z,99.99
2018-10-07T06:10:33.244Z,99.99
2018-10-07T06:11:33.158Z,99.99
2018-10-07T06:12:33.109Z,99.99
2018-10-07T06:13:33.055Z,99.99
2018-10-07T06:14:33.013Z,99.99
2018-10-07T06:15:32.989Z,99.99
2018-10-07T06:16:32.922Z,99.99
2018-10-07T06:17:32.855Z,99.99
2018-10-07T06:18:32.798Z,99.99
2018-10-07T06:19:32.745Z,99.99
2018-10-07T06:20:32.723Z,99.99
2018-10-07T06:21:32.647Z,99.99
2018-10-07T06:22:32.583Z,99.99
2018-10-07T06:23:32.540Z,99.99
2018-10-07T06:24:32.486Z,99.99
2018-10-07T06:25:32.468Z,99.99
2018-10-07T06:26:32.376Z,99.99
2018-10-07T06:27:32.326Z,99.99
2018-10-07T06:28:32.276Z,99.99
2018-10-07T06:29:32.222Z,99.99
2018-10-07T06:30:32.212Z,99.99
2018-10-07T06:31:32.147Z,99.99
2018-10-07T06:32:32.061Z,99.99
2018-10-07T06:33:32.021Z,99.99
2018-10-07T06:34:31.960Z,99.99
2018-10-07T06:35:31.921Z,99.99
2018-10-07T06:36:31.910Z,99.99
2018-10-07T06:37:31.805Z,99.99
2018-10-07T06:38:31.759Z,99.99
2018-10-07T06:39:31.764Z,99.99
2018-10-07T06:40:31.652Z,99.99
2018-10-07T06:41:31.634Z,99.99
2018-10-07T06:42:31.540Z,99.99
2018-10-07T06:43:31.489Z,99.99
2018-10-07T06:44:31.444Z,99.99
2018-10-07T06:45:31.443Z,99.99
2018-10-07T06:46:31.371Z,99.99
2018-10-07T06:47:31.282Z,99.99
2018-10-07T06:48:31.240Z,99.99
2018-10-07T06:49:31.179Z,99.99
2018-10-07T06:50:31.127Z,99.99
2018-10-07T06:51:31.094Z,99.99
2018-10-07T06:52:31.020Z,99.99
2018-10-07T06:53:30.969Z,99.99
2018-10-07T06:54:30.920Z,99.99
2018-10-07T06:55:30.864Z,99.99
2018-10-07T06:56:30.838Z,99.99
2018-10-07T06:57:30.761Z,99.99
2018-10-07T06:58:30.711Z,99.99
2018-10-07T06:59:30.726Z,99.99
2018-10-07T07:00:30.627Z,99.99
2018-10-07T07:01:30.578Z,99.99
2018-10-07T07:02:30.505Z,99.99
2018-10-07T07:03:30.452Z,99.99
2018-10-07T07:04:30.395Z,99.99
2018-10-07T07:05:30.348Z,99.99
2018-10-07T07:06:30.345Z,99.99
2018-10-07T07:07:30.246Z,99.99
2018-10-07T07:08:30.201Z,99.99
2018-10-07T07:09:30.156Z,99.99
2018-10-07T07:10:30.086Z,99.99
2018-10-07T07:11:30.061Z,99.99
2018-10-07T07:12:29.988Z,99.99
2018-10-07T07:13:29.933Z,99.99
2018-10-07T07:14:29.889Z,99.99
2018-10-07T07:15:29.834Z,99.99
2018-10-07T07:16:29.803Z,99.99
2018-10-07T07:17:29.729Z,99.99
2018-10-07T07:18:29.675Z,99.99
2018-10-07T07:19:29.624Z,99.99
2018-10-07T07:20:29.576Z,99.99
2018-10-07T07:21:29.554Z,99.99
2018-10-07T07:22:29.476Z,99.99
2018-10-07T07:23:29.421Z,99.99
2018-10-07T07:24:29.365Z,99.99
2018-10-07T07:25:29.321Z,99.99
2018-10-07T07:26:29.288Z,99.99
2018-10-07T07:27:29.219Z,99.99
2018-10-07T07:28:29.161Z,99.99
2018-10-07T07:29:29.119Z,99.99
2018-10-07T07:30:29.062Z,99.99
2018-10-07T07:31:29.102Z,99.99
2018-10-07T07:32:28.966Z,99.99
2018-10-07T07:33:28.905Z,99.99
2018-10-07T07:34:28.852Z,99.99
2018-10-07T07:35:28.807Z,99.99
2018-10-07T07:36:28.774Z,99.99
2018-10-07T07:37:28.698Z,99.99
2018-10-07T07:38:28.646Z,99.99
2018-10-07T07:39:28.595Z,99.99
2018-10-07T07:40:28.549Z,99.99
2018-10-07T07:41:28.491Z,99.99
2018-10-07T07:42:28.538Z,99.99
2018-10-07T07:43:28.394Z,99.99
2018-10-07T07:44:28.339Z,99.99
2018-10-07T07:45:28.283Z,99.99
2018-10-07T07:46:28.229Z,99.99
2018-10-07T07:47:28.216Z,99.99
2018-10-07T07:48:28.128Z,99.99
2018-10-07T07:49:28.079Z,99.99
2018-10-07T07:50:28.035Z,99.99
2018-10-07T07:51:27.978Z,99.99
2018-10-07T07:52:27.965Z,99.99
2018-10-07T07:53:27.865Z,99.99
2018-10-07T07:54:27.821Z,99.99
2018-10-07T07:55:27.775Z,99.99
2018-10-07T07:56:27.712Z,99.99
2018-10-07T07:57:27.692Z,99.46
2018-10-07T07:58:27.611Z,99.99
2018-10-07T07:59:27.561Z,99.99
2018-10-07T08:00:27.509Z,99.99
2018-10-07T08:01:27.459Z,99.70
2018-10-07T08:02:27.435Z,98.94
2018-10-07T08:03:27.352Z,99.60
2018-10-07T08:04:27.302Z,99.22
2018-10-07T08:05:27.248Z,99.51
2018-10-07T08:06:27.203Z,98.85
2018-10-07T08:07:27.176Z,98.36
2018-10-07T08:08:27.097Z,99.99
2018-10-07T08:09:27.054Z,99.41
2018-10-07T08:10:26.994Z,98.94
2018-10-07T08:11:26.942Z,97.99
2018-10-07T08:12:26.919Z,98.36
2018-10-07T08:13:26.850Z,97.80
2018-10-07T08:14:26.791Z,98.75
2018-10-07T08:15:26.743Z,98.65
2018-10-07T08:16:26.690Z,97.70
2018-10-07T08:17:26.722Z,97.99
2018-10-07T08:18:26.597Z,97.70
2018-10-07T08:19:26.554Z,97.61
2018-10-07T08:20:26.481Z,96.32
2018-10-07T08:21:26.434Z,97.85
2018-10-07T08:22:26.393Z,97.27
2018-10-07T08:23:26.344Z,97.37
2018-10-07T08:24:26.277Z,96.32
2018-10-07T08:25:26.221Z,96.32
2018-10-07T08:26:26.191Z,96.70
2018-10-07T08:27:26.145Z,95.08
2018-10-07T08:28:26.089Z,95.56
2018-10-07T08:29:26.087Z,96.22
2018-10-07T08:30:25.970Z,96.03
2018-10-07T08:31:25.917Z,96.66
2018-10-07T08:32:25.892Z,97.03
2018-10-07T08:33:25.818Z,94.46
2018-10-07T08:34:25.760Z,93.98
2018-10-07T08:35:25.726Z,94.65
2018-10-07T08:36:25.672Z,95.70
2018-10-07T08:37:25.631Z,95.12
2018-10-07T08:38:25.563Z,95.12
2018-10-07T08:39:25.512Z,93.41
2018-10-07T08:40:25.456Z,93.02
2018-10-07T08:41:25.421Z,93.41
2018-10-07T08:42:25.385Z,93.51
2018-10-07T08:43:25.300Z,92.36
2018-10-07T08:44:25.299Z,91.31
2018-10-07T08:45:25.208Z,92.46
2018-10-07T08:46:25.151Z,93.31
2018-10-07T08:47:25.123Z,92.93
2018-10-07T08:48:25.060Z,92.83
2018-10-07T08:49:24.995Z,92.55
2018-10-07T08:50:24.948Z,93.02
2018-10-07T08:51:24.892Z,93.88
2018-10-07T08:52:24.872Z,93.02
2018-10-07T08:53:24.793Z,92.55
2018-10-07T08:54:24.746Z,93.65
2018-10-07T08:55:24.693Z,92.79
2018-10-07T08:56:24.680Z,92.69
2018-10-07T08:57:24.619Z,91.45
2018-10-07T08:58:24.546Z,92.02
2018-10-07T08:59:24.487Z,93.55
2018-10-07T09:00:24.441Z,92.60
2018-10-07T09:01:24.392Z,92.60
2018-10-07T09:02:24.359Z,92.21
2018-10-07T09:03:24.287Z,91.74
2018-10-07T09:04:24.240Z,90.50
2018-10-07T09:05:24.186Z,90.21
2018-10-07T09:06:24.149Z,90.21
2018-10-07T09:07:24.166Z,91.36
2018-10-07T09:08:24.038Z,89.83
2018-10-07T09:09:24.001Z,91.26
2018-10-07T09:10:23.976Z,91.36
2018-10-07T09:11:23.886Z,90.78
2018-10-07T09:12:23.841Z,91.55
2018-10-07T09:13:23.880Z,90.02
2018-10-07T09:14:23.857Z,90.59
2018-10-07T09:15:23.754Z,90.40
2018-10-07T09:16:23.629Z,90.88
2018-10-07T09:17:23.593Z,91.88
2018-10-07T09:18:23.602Z,90.78
2018-10-07T09:19:23.718Z,90.35
2018-10-07T09:20:23.425Z,89.45
2018-10-07T09:21:23.374Z,90.31
2018-10-07T09:22:23.325Z,89.87
2018-10-07T09:23:23.300Z,88.78
2018-10-07T09:24:23.224Z,89.25
2018-10-07T09:25:23.173Z,90.21
2018-10-07T09:26:23.130Z,89.73
2018-10-07T09:27:23.114Z,88.40
2018-10-07T09:28:23.054Z,88.11
2018-10-07T09:29:22.978Z,88.49
2018-10-07T09:30:22.936Z,89.35
2018-10-07T09:31:22.868Z,89.35
2018-10-07T09:32:22.829Z,89.83
2018-10-07T09:33:22.816Z,88.68
2018-10-07T09:34:22.718Z,89.25
2018-10-07T09:35:22.671Z,88.97
2018-10-07T09:36:22.631Z,89.16
2018-10-07T09:37:22.573Z,88.78
2018-10-07T09:38:22.549Z,89.06
2018-10-07T09:39:22.536Z,88.78
2018-10-07T09:40:22.427Z,88.68
2018-10-07T09:41:22.372Z,88.87
2018-10-07T09:42:22.337Z,89.06
2018-10-07T09:43:23.254Z,89.64
2018-10-07T09:44:22.224Z,89.92
2018-10-07T09:45:22.186Z,89.45
2018-10-07T09:46:22.127Z,89.64
2018-10-07T09:47:22.074Z,89.68
2018-10-07T09:48:22.041Z,88.11
2018-10-07T09:49:21.968Z,87.82
2018-10-07T09:50:21.911Z,88.68
2018-10-07T09:51:21.861Z,88.01
2018-10-07T09:52:21.869Z,87.63
2018-10-07T09:53:21.808Z,87.73
2018-10-07T09:54:21.706Z,87.82
2018-10-07T09:55:21.658Z,89.25
2018-10-07T09:56:21.610Z,90.11
2018-10-07T09:57:21.555Z,87.73
2018-10-07T09:58:21.535Z,87.35
2018-10-07T09:59:21.456Z,88.01
2018-10-07T10:00:21.403Z,88.68
2018-10-07T10:01:21.436Z,88.68
2018-10-07T10:02:21.315Z,89.49
2018-10-07T10:03:21.287Z,88.25
2018-10-07T10:04:21.314Z,88.06
2018-10-07T10:05:21.154Z,87.77
2018-10-07T10:06:21.106Z,88.06
2018-10-07T10:07:21.065Z,86.63
2018-10-07T10:08:21.027Z,86.72
2018-10-07T10:09:20.952Z,87.48
2018-10-07T10:10:20.896Z,86.91
2018-10-07T10:11:21.015Z,86.34
2018-10-07T10:12:20.800Z,86.15
2018-10-07T10:13:20.782Z,87.29
2018-10-07T10:14:20.764Z,86.72
2018-10-07T10:15:20.651Z,86.91
2018-10-07T10:16:20.595Z,86.91
2018-10-07T10:17:20.548Z,86.63
2018-10-07T10:18:20.513Z,86.53
2018-10-07T10:19:20.443Z,86.91
2018-10-07T10:20:20.393Z,86.34
2018-10-07T10:21:20.346Z,87.29
2018-10-07T10:22:20.299Z,87.87
2018-10-07T10:23:20.288Z,87.29
2018-10-07T10:24:20.197Z,86.82
2018-10-07T10:25:20.145Z,86.63
2018-10-07T10:26:20.094Z,84.91
2018-10-07T10:27:20.040Z,85.67
2018-10-07T10:28:20.017Z,87.01
2018-10-07T10:29:19.951Z,87.20
2018-10-07T10:30:19.926Z,87.01
2018-10-07T10:31:19.855Z,85.86
2018-10-07T10:32:19.792Z,84.23
2018-10-07T10:33:19.784Z,85.10
2018-10-07T10:34:19.686Z,85.86
2018-10-07T10:35:19.638Z,86.63
2018-10-07T10:36:19.585Z,85.86
2018-10-07T10:37:19.537Z,84.14
2018-10-07T10:38:19.480Z,85.86
2018-10-07T10:39:19.465Z,86.43
2018-10-07T10:40:19.386Z,85.96
2018-10-07T10:41:19.339Z,86.00
2018-10-07T10:42:19.290Z,85.10
2018-10-07T10:43:19.232Z,84.52
2018-10-07T10:44:19.208Z,85.77
2018-10-07T10:45:19.136Z,85.90
2018-10-07T10:46:19.082Z,85.81
2018-10-07T10:47:19.048Z,85.90
2018-10-07T10:48:18.988Z,85.62
2018-10-07T10:49:18.952Z,86.19
2018-10-07T10:50:18.919Z,86.19
2018-10-07T10:51:18.829Z,85.90
2018-10-07T10:52:18.780Z,84.85
2018-10-07T10:53:18.740Z,85.42
2018-10-07T10:54:18.710Z,84.38
2018-10-07T10:55:19.341Z,83.23
2018-10-07T10:56:18.587Z,83.80
2018-10-07T10:57:18.529Z,83.23
2018-10-07T10:58:18.477Z,83.61
2018-10-07T10:59:18.454Z,83.61
2018-10-07T11:00:18.382Z,84.28
2018-10-07T11:01:18.326Z,83.51
2018-10-07T11:02:18.288Z,83.51
2018-10-07T11:03:18.227Z,85.24
2018-10-07T11:04:18.227Z,83.99
2018-10-07T11:05:18.128Z,83.23
2018-10-07T11:06:18.078Z,82.94
2018-10-07T11:07:18.035Z,83.61
2018-10-07T11:08:17.977Z,83.13
2018-10-07T11:09:17.981Z,82.94
2018-10-07T11:10:17.878Z,83.04
2018-10-07T11:11:17.839Z,83.13
2018-10-07T11:12:17.784Z,82.28
2018-10-07T11:13:17.723Z,82.56
2018-10-07T11:14:17.712Z,82.08
2018-10-07T11:15:17.642Z,82.28
2018-10-07T11:16:17.583Z,83.23
2018-10-07T11:17:17.524Z,83.70
2018-10-07T11:18:17.475Z,83.61
2018-10-07T11:19:17.429Z,82.75
2018-10-07T11:20:17.394Z,81.60
2018-10-07T11:21:17.325Z,81.51
2018-10-07T11:22:17.284Z,82.46
2018-10-07T11:23:17.220Z,82.65
2018-10-07T11:24:17.172Z,82.94
2018-10-07T11:25:17.142Z,82.18
2018-10-07T11:26:17.130Z,82.46
2018-10-07T11:27:17.018Z,82.65
2018-10-07T11:28:16.978Z,82.56
2018-10-07T11:29:16.922Z,83.04
2018-10-07T11:30:16.891Z,82.84
2018-10-07T11:31:16.819Z,81.60
2018-10-07T11:32:16.766Z,82.08
2018-10-07T11:33:16.726Z,82.08
2018-10-07T11:34:16.668Z,82.65
2018-10-07T11:35:16.643Z,83.13
2018-10-07T11:36:16.569Z,84.09
2018-10-07T11:37:16.528Z,83.99
2018-10-07T11:38:16.468Z,83.80
2018-10-07T11:39:16.418Z,83.23
2018-10-07T11:40:16.392Z,82.37
2018-10-07T11:41:16.316Z,82.75
2018-10-07T11:42:16.282Z,81.51
2018-10-07T11:43:16.237Z,80.65
2018-10-07T11:44:16.171Z,81.32
2018-10-07T11:45:16.139Z,81.13
2018-10-07T11:46:16.071Z,81.32
2018-10-07T11:47:16.020Z,81.51
2018-10-07T11:48:15.972Z,82.08
2018-10-07T11:49:15.934Z,81.60
2018-10-07T11:50:15.895Z,81.32
2018-10-07T11:51:15.818Z,81.70
2018-10-07T11:52:15.771Z,82.08
2018-10-07T11:53:15.721Z,81.89
2018-10-07T11:54:15.672Z,81.79
2018-10-07T11:55:15.656Z,82.08
2018-10-07T11:56:15.566Z,81.32
2018-10-07T11:57:15.518Z,82.46
2018-10-07T11:58:15.469Z,82.08
2018-10-07T11:59:15.429Z,81.65
2018-10-07T12:00:15.397Z,82.28
2018-10-07T12:01:15.325Z,82.28
2018-10-07T12:02:15.325Z,82.79
2018-10-07T12:03:15.231Z,83.04
2018-10-07T12:04:15.171Z,80.98
2018-10-07T12:05:15.148Z,80.69
2018-10-07T12:06:15.066Z,81.45
2018-10-07T12:07:15.019Z,80.50
2018-10-07T12:08:14.964Z,80.69
2018-10-07T12:09:14.913Z,80.40
2018-10-07T12:10:14.939Z,79.06
2018-10-07T12:11:14.818Z,79.06
2018-10-07T12:12:14.768Z,78.58
2018-10-07T12:13:14.719Z,79.25
2018-10-07T12:14:14.665Z,79.64
2018-10-07T12:15:14.640Z,79.73
2018-10-07T12:16:14.602Z,80.88
2018-10-07T12:17:14.520Z,81.45
2018-10-07T12:18:14.469Z,80.21
2018-10-07T12:19:14.425Z,80.79
2018-10-07T12:20:14.370Z,80.69
2018-10-07T12:21:14.337Z,80.98
2018-10-07T12:22:14.268Z,81.26
2018-10-07T12:23:14.216Z,81.74
2018-10-07T12:24:14.163Z,81.26
2018-10-07T12:25:14.121Z,81.36
2018-10-07T12:26:14.109Z,80.69
2018-10-07T12:27:14.014Z,81.26
2018-10-07T12:28:13.971Z,80.98
2018-10-07T12:29:13.922Z,80.88
2018-10-07T12:30:13.885Z,81.55
2018-10-07T12:31:13.844Z,82.31
2018-10-07T12:32:13.768Z,81.36
2018-10-07T12:33:13.714Z,81.36
2018-10-07T12:34:13.666Z,80.40
2018-10-07T12:35:13.635Z,81.36
2018-10-07T12:36:13.590Z,80.88
2018-10-07T12:37:13.521Z,79.64
2018-10-07T12:38:13.469Z,79.06
2018-10-07T12:39:13.420Z,79.83
2018-10-07T12:40:13.373Z,79.73
2018-10-07T12:41:13.370Z,79.93
2018-10-07T12:42:13.290Z,79.73
2018-10-07T12:43:13.216Z,80.11
2018-10-07T12:44:13.170Z,80.50
2018-10-07T12:45:13.117Z,79.35
2018-10-07T12:46:13.111Z,79.44
2018-10-07T12:47:13.027Z,79.83
2018-10-07T12:48:12.971Z,78.97
2018-10-07T12:49:12.919Z,79.35
2018-10-07T12:50:12.873Z,78.39
2018-10-07T12:51:12.850Z,78.87
2018-10-07T12:52:12.773Z,78.68